Time;durP1;ratioP1;P1;durP2;ratioP2;P2;SDS_P1;SDS_P2;PMS_P1;PMS_P2;Temp;Humidity;BMP_temperature;BMP_pressure;BME280_temperature;BME280_humidity;BME280_pressure;Samples;Min_cycle;Max_cycle;Signal;HPM_P1;HPM_P2
2022/03/04 04:57:08;;;;;;;25.10;13.02;;;-0.20;91.80;;;;;;5682447;23;20050;-79
2022/03/04 04:59:35;;;;;;;22.15;12.90;;;-0.20;91.90;;;;;;4984642;28;20042;-79
2022/03/04 05:02:03;;;;;;;21.58;12.65;;;-0.30;91.90;;;;;;4997999;28;20057;-79
2022/03/04 05:04:30;;;;;;;21.95;12.52;;;-0.30;91.90;;;;;;4998057;28;20090;-76
2022/03/04 05:06:57;;;;;;;20.63;12.23;;;-0.30;92.10;;;;;;4998185;28;20046;-76
2022/03/04 05:09:24;;;;;;;22.27;12.60;;;-0.30;92.20;;;;;;4996506;28;20475;-77
2022/03/04 05:11:51;;;;;;;23.05;12.70;;;-0.30;92.20;;;;;;4997828;28;20509;-76
2022/03/04 05:14:19;;;;;;;22.20;12.95;;;-0.30;92.30;;;;;;4998498;28;20055;-75
2022/03/04 05:16:48;;;;;;;22.48;12.30;;;-0.40;92.30;;;;;;4997864;28;20133;-78
2022/03/04 05:19:15;;;;;;;22.75;13.40;;;-0.40;92.30;;;;;;5001358;28;20130;-77
2022/03/04 05:21:42;;;;;;;23.15;13.57;;;-0.40;92.10;;;;;;5000353;28;20070;-80
2022/03/04 05:24:11;;;;;;;22.73;12.85;;;-0.40;92.20;;;;;;5001640;28;20042;-81
2022/03/04 05:26:41;;;;;;;24.08;13.63;;;-0.50;92.10;;;;;;5003615;28;20069;-79
2022/03/04 05:29:12;;;;;;;22.60;13.32;;;-0.60;92.00;;;;;;5001817;28;20498;-80
2022/03/04 05:31:43;;;;;;;22.10;13.10;;;-0.70;92.30;;;;;;5000245;28;20640;-81
2022/03/04 05:34:11;;;;;;;22.95;13.18;;;-0.70;92.60;;;;;;5002444;28;20054;-81
2022/03/04 05:36:38;;;;;;;24.52;13.73;;;-0.80;92.90;;;;;;5003448;28;20050;-81
2022/03/04 05:39:06;;;;;;;24.25;13.98;;;-0.90;93.10;;;;;;5004343;28;20138;-80
2022/03/04 05:41:33;;;;;;;22.85;12.68;;;-1.00;93.30;;;;;;5004262;28;20118;-79
2022/03/04 05:44:00;;;;;;;26.52;13.45;;;-1.00;93.60;;;;;;5003648;28;20050;-80
2022/03/04 05:46:27;;;;;;;24.17;13.90;;;-1.00;94.10;;;;;;5002305;28;20043;-82
2022/03/04 05:48:56;;;;;;;23.33;13.88;;;-1.00;93.80;;;;;;5001179;28;20133;-81
2022/03/04 05:51:23;;;;;;;28.48;14.05;;;-1.10;93.50;;;;;;5002126;28;20070;-80
2022/03/04 05:53:51;;;;;;;27.02;14.20;;;-1.30;93.60;;;;;;5003036;28;20495;-80
2022/03/04 05:56:19;;;;;;;23.35;13.65;;;-1.40;94.10;;;;;;5004660;28;20054;-81
2022/03/04 05:58:46;;;;;;;24.50;14.18;;;-1.40;94.60;;;;;;5005837;28;20110;-81
2022/03/04 06:01:13;;;;;;;25.75;13.90;;;-1.40;94.80;;;;;;4996811;28;20050;-82
2022/03/04 06:03:41;;;;;;;25.95;14.38;;;-1.40;95.00;;;;;;4986776;28;20111;-80
2022/03/04 06:06:11;;;;;;;22.80;12.70;;;-1.40;95.10;;;;;;4985460;28;20476;-80
2022/03/04 06:08:39;;;;;;;26.27;13.55;;;-1.40;95.30;;;;;;4986827;28;20054;-82
2022/03/04 06:11:08;;;;;;;23.33;13.05;;;-1.30;95.50;;;;;;4985747;28;20118;-79
2022/03/04 06:13:35;;;;;;;24.48;13.45;;;-1.30;95.50;;;;;;4986235;28;20074;-80
2022/03/04 06:16:03;;;;;;;24.50;14.07;;;-1.20;95.40;;;;;;4985097;28;20047;-82
2022/03/04 06:18:30;;;;;;;25.25;13.63;;;-1.10;95.40;;;;;;4987006;28;20118;-80
2022/03/04 06:20:58;;;;;;;24.90;13.05;;;-1.10;95.30;;;;;;4986080;28;20051;-81
2022/03/04 06:23:27;;;;;;;22.90;13.60;;;-1.00;95.20;;;;;;4985423;28;20071;-82
2022/03/04 06:25:55;;;;;;;26.77;13.68;;;-1.00;95.10;;;;;;4986186;28;20054;-82
2022/03/04 06:28:23;;;;;;;24.25;13.68;;;-0.90;94.80;;;;;;4986017;28;20412;-80
2022/03/04 06:30:50;;;;;;;25.15;13.82;;;-0.90;94.50;;;;;;4989098;28;20444;-79
2022/03/04 06:33:32;;;;;;;22.98;13.38;;;-0.90;94.10;;;;;;4989190;28;20047;-81
2022/03/04 06:36:05;;;;;;;23.92;12.93;;;-0.90;94.00;;;;;;4986232;28;20595;-82
2022/03/04 06:38:36;;;;;;;22.63;13.07;;;-1.00;94.20;;;;;;4986662;28;20078;-81
2022/03/04 06:41:03;;;;;;;22.45;13.05;;;-1.00;94.50;;;;;;4991592;28;20110;-83
2022/03/04 06:43:30;;;;;;;21.50;12.30;;;-0.90;94.60;;;;;;4991614;28;20046;-81
2022/03/04 06:45:58;;;;;;;23.67;13.52;;;-0.90;94.50;;;;;;4992023;28;20133;-81
2022/03/04 06:48:27;;;;;;;24.65;12.98;;;-0.90;94.60;;;;;;4992283;28;20134;-82
2022/03/04 06:50:54;;;;;;;25.00;13.70;;;-0.80;94.60;;;;;;4991261;28;20047;-85
2022/03/04 06:53:21;;;;;;;23.75;13.10;;;-0.80;94.70;;;;;;4991356;28;20053;-79
2022/03/04 06:55:50;;;;;;;22.88;13.13;;;-0.80;94.60;;;;;;4988582;28;20141;-81
2022/03/04 06:58:17;;;;;;;23.13;13.20;;;-0.80;94.60;;;;;;4992066;28;20081;-82
2022/03/04 07:00:45;;;;;;;24.38;13.88;;;-0.70;94.60;;;;;;4992737;28;20077;-82
2022/03/04 07:03:12;;;;;;;23.70;13.00;;;-0.70;94.50;;;;;;4993295;28;20095;-87
2022/03/04 07:05:40;;;;;;;23.25;13.23;;;-0.60;94.60;;;;;;4993871;28;20081;-81
2022/03/04 07:08:11;;;;;;;25.80;14.18;;;-0.60;94.60;;;;;;4993711;28;20106;-81
2022/03/04 07:10:38;;;;;;;22.42;13.30;;;-0.60;94.60;;;;;;4995438;28;20050;-82
2022/03/04 07:13:07;;;;;;;26.63;14.57;;;-0.50;94.60;;;;;;4994278;28;20051;-81
2022/03/04 07:15:35;;;;;;;26.60;15.25;;;-0.50;94.40;;;;;;4993063;28;20110;-85
2022/03/04 07:18:02;;;;;;;30.10;14.82;;;-0.50;94.00;;;;;;4988398;28;20050;-81
2022/03/04 07:20:29;;;;;;;26.73;14.43;;;-0.50;94.10;;;;;;4988039;28;20051;-81
2022/03/04 07:22:56;;;;;;;25.80;14.57;;;-0.60;94.30;;;;;;4987731;28;20545;-82
2022/03/04 07:25:23;;;;;;;28.67;14.88;;;-0.60;94.40;;;;;;4990009;28;20066;-82
2022/03/04 07:27:50;;;;;;;26.50;14.93;;;-0.60;94.60;;;;;;4985981;28;20050;-81
2022/03/04 07:30:20;;;;;;;28.00;14.95;;;-0.60;94.80;;;;;;4988210;28;20099;-80
2022/03/04 07:32:49;;;;;;;30.60;15.85;;;-0.60;95.00;;;;;;4984386;28;20051;-82
2022/03/04 07:35:16;;;;;;;27.08;14.35;;;-0.50;95.00;;;;;;4992126;28;20460;-91
2022/03/04 07:37:44;;;;;;;26.00;14.70;;;-0.50;95.20;;;;;;4991939;28;20111;-86
2022/03/04 07:40:14;;;;;;;29.77;16.20;;;-0.50;95.30;;;;;;4991390;28;20115;-81
2022/03/04 07:42:41;;;;;;;30.95;15.82;;;-0.40;95.40;;;;;;4989386;28;20730;-86
2022/03/04 07:45:11;;;;;;;26.63;14.88;;;-0.40;95.40;;;;;;4990519;28;20047;-84
2022/03/04 07:47:41;;;;;;;26.70;15.30;;;-0.30;95.40;;;;;;4987829;28;20057;-82
2022/03/04 07:50:11;;;;;;;27.73;15.15;;;-0.20;95.40;;;;;;4992030;28;20047;-85
2022/03/04 07:52:39;;;;;;;28.38;15.63;;;-0.10;95.30;;;;;;4989035;28;20106;-85
2022/03/04 07:55:09;;;;;;;27.60;15.63;;;-0.10;95.20;;;;;;4990415;28;20110;-84
2022/03/04 07:57:37;;;;;;;29.38;15.80;;;0.00;95.20;;;;;;4987042;28;20061;-80
2022/03/04 08:00:06;;;;;;;30.33;16.70;;;0.00;95.30;;;;;;4988551;28;20145;-81
2022/03/04 08:02:33;;;;;;;30.77;16.70;;;0.10;95.40;;;;;;4987307;28;20054;-81
2022/03/04 08:05:02;;;;;;;28.52;15.98;;;0.10;95.40;;;;;;4989993;28;20082;-80
2022/03/04 08:07:29;;;;;;;29.30;16.60;;;0.20;95.50;;;;;;4990188;28;20051;-82
2022/03/04 08:09:56;;;;;;;29.92;16.17;;;0.20;95.60;;;;;;5009725;28;20061;-84
2022/03/04 08:12:25;;;;;;;26.50;15.07;;;0.30;95.50;;;;;;5008544;28;20137;-78
2022/03/04 08:14:52;;;;;;;28.08;15.52;;;0.30;95.50;;;;;;5006718;28;20050;-79
2022/03/04 08:17:19;;;;;;;28.90;15.73;;;0.30;95.10;;;;;;5007360;28;20051;-83
2022/03/04 08:19:46;;;;;;;29.48;15.60;;;0.40;95.00;;;;;;5005587;28;20085;-83
2022/03/04 08:22:15;;;;;;;29.20;15.73;;;0.50;95.00;;;;;;5009723;28;20526;-81
2022/03/04 08:24:42;;;;;;;25.42;15.18;;;0.60;94.90;;;;;;5011341;28;20089;-87
2022/03/04 08:27:09;;;;;;;25.60;15.25;;;0.60;94.70;;;;;;5010189;28;20053;-82
2022/03/04 08:29:36;;;;;;;27.10;15.20;;;0.70;94.60;;;;;;5007811;28;20437;-81
2022/03/04 08:32:04;;;;;;;24.92;14.45;;;0.80;94.60;;;;;;5009297;28;20134;-84
2022/03/04 08:34:31;;;;;;;25.30;14.50;;;0.80;94.50;;;;;;5008471;28;20110;-83
2022/03/04 08:36:58;;;;;;;24.25;14.63;;;0.90;94.20;;;;;;5005168;28;20050;-85
2022/03/04 08:39:26;;;;;;;26.75;14.15;;;1.00;93.60;;;;;;5003728;28;20533;-80
2022/03/04 08:41:53;;;;;;;25.50;14.15;;;1.10;93.20;;;;;;5005735;28;20080;-85
2022/03/04 08:44:20;;;;;;;27.20;14.00;;;1.20;92.90;;;;;;5003299;28;20053;-78
2022/03/04 08:46:48;;;;;;;25.73;14.30;;;1.40;92.50;;;;;;5003722;28;20056;-84
2022/03/04 08:49:17;;;;;;;27.30;14.85;;;1.50;92.20;;;;;;5002444;28;20050;-81
2022/03/04 08:51:44;;;;;;;25.63;14.07;;;1.60;91.50;;;;;;5001562;28;20108;-82
2022/03/04 08:54:11;;;;;;;23.08;13.82;;;1.60;91.40;;;;;;5000986;28;20061;-83
2022/03/04 08:56:39;;;;;;;25.10;14.07;;;1.70;91.20;;;;;;5002481;28;20053;-82
2022/03/04 08:59:06;;;;;;;27.67;14.90;;;1.80;91.10;;;;;;5002487;28;20129;-80
2022/03/04 09:01:34;;;;;;;26.52;14.60;;;1.80;90.90;;;;;;5001266;28;20056;-82
2022/03/04 09:04:01;;;;;;;24.50;13.93;;;1.90;90.90;;;;;;5003969;28;20133;-79
2022/03/04 09:06:27;;;;;;;25.63;14.80;;;1.90;90.80;;;;;;5005483;28;20121;-81
2022/03/04 09:08:55;;;;;;;23.92;13.68;;;2.00;90.50;;;;;;5005663;28;20134;-81
2022/03/04 09:11:22;;;;;;;24.65;14.02;;;2.10;90.40;;;;;;5005201;28;20052;-80
2022/03/04 09:13:50;;;;;;;27.52;14.18;;;2.20;90.30;;;;;;5004888;28;20058;-83
2022/03/04 09:16:17;;;;;;;24.98;13.95;;;2.30;90.30;;;;;;5004445;28;20043;-80
2022/03/04 09:18:44;;;;;;;29.58;15.85;;;2.30;90.20;;;;;;5005255;28;20053;-82
2022/03/04 09:21:11;;;;;;;29.25;16.38;;;2.40;89.30;;;;;;5005384;28;20057;-81
2022/03/04 09:23:38;;;;;;;25.63;14.85;;;2.50;89.10;;;;;;5004949;28;20470;-83
2022/03/04 09:26:05;;;;;;;28.33;15.70;;;2.50;89.40;;;;;;5005444;28;20046;-83
2022/03/04 09:28:33;;;;;;;28.80;15.98;;;2.60;89.60;;;;;;5004556;28;20122;-83
2022/03/04 09:31:01;;;;;;;27.58;16.02;;;2.70;89.10;;;;;;5003073;28;20130;-83
2022/03/04 09:33:28;;;;;;;28.25;15.45;;;2.80;88.50;;;;;;5001727;28;20054;-83
2022/03/04 09:35:55;;;;;;;27.15;15.10;;;2.90;88.70;;;;;;5005719;28;20467;-86
2022/03/04 09:38:22;;;;;;;26.95;14.77;;;2.90;88.50;;;;;;5004805;28;20111;-84
2022/03/04 09:40:50;;;;;;;27.75;15.40;;;3.00;88.40;;;;;;5005597;28;20050;-84
2022/03/04 09:43:18;;;;;;;24.00;14.10;;;3.10;87.70;;;;;;5004684;28;20058;-82
2022/03/04 09:45:47;;;;;;;27.92;14.88;;;3.20;87.10;;;;;;5002413;28;20047;-80
2022/03/04 09:48:16;;;;;;;26.02;15.07;;;3.30;86.70;;;;;;4998321;28;20050;-83
2022/03/04 09:50:47;;;;;;;25.17;14.43;;;3.40;86.30;;;;;;5002329;28;20113;-82
2022/03/04 09:53:15;;;;;;;23.42;15.18;;;3.40;86.10;;;;;;5001755;28;20051;-84
2022/03/04 09:55:44;;;;;;;27.58;15.30;;;3.50;85.50;;;;;;5001335;28;20054;-83
2022/03/04 09:58:12;;;;;;;26.65;14.80;;;3.60;84.80;;;;;;4998682;28;20062;-81
2022/03/04 10:00:39;;;;;;;29.52;16.00;;;3.70;84.20;;;;;;4997184;28;20050;-79
2022/03/04 10:03:07;;;;;;;28.80;16.20;;;3.80;82.20;;;;;;4997867;28;20137;-80
2022/03/04 10:05:51;;;;;;;28.20;15.38;;;3.90;80.90;;;;;;4997284;28;20050;-84
2022/03/04 10:08:20;;;;;;;30.40;15.75;;;3.90;80.30;;;;;;4997700;28;20043;-83
2022/03/04 10:10:49;;;;;;;25.63;14.50;;;4.00;79.50;;;;;;4997005;28;20051;-81
2022/03/04 10:13:16;;;;;;;27.75;14.45;;;4.10;79.50;;;;;;4997165;28;20050;-80
2022/03/04 10:15:55;;;;;;;26.35;14.75;;;4.20;78.90;;;;;;4996124;28;20053;-81
2022/03/04 10:18:28;;;;;;;27.67;15.70;;;4.30;78.00;;;;;;4994731;28;20054;-79
2022/03/04 10:20:57;;;;;;;26.52;14.60;;;4.40;77.00;;;;;;4993449;28;20108;-78
2022/03/04 10:23:27;;;;;;;26.45;14.75;;;4.40;76.10;;;;;;4992265;28;20056;-81
2022/03/04 10:25:59;;;;;;;27.00;15.10;;;4.50;75.20;;;;;;4993548;28;20485;-82
2022/03/04 10:28:28;;;;;;;26.85;14.35;;;4.60;73.70;;;;;;4978591;28;20059;-81
2022/03/04 10:30:57;;;;;;;23.85;14.95;;;4.70;72.70;;;;;;4979808;28;20054;-79
2022/03/04 10:33:26;;;;;;;24.30;14.35;;;4.70;71.70;;;;;;4991536;28;20090;-81
2022/03/04 10:36:09;;;;;;;27.75;15.13;;;4.80;71.60;;;;;;4991527;28;20072;-81
2022/03/04 10:38:38;;;;;;;25.42;14.45;;;4.90;70.10;;;;;;4991754;28;20060;-81
2022/03/04 10:41:23;;;;;;;27.77;15.40;;;4.90;69.10;;;;;;4989427;28;20049;-76
2022/03/04 10:43:51;;;;;;;28.75;15.77;;;5.00;68.50;;;;;;4984347;28;20559;-81
2022/03/04 10:46:19;;;;;;;29.90;17.27;;;5.10;67.00;;;;;;4985082;28;20546;-77
2022/03/04 10:48:54;;;;;;;30.38;17.08;;;5.20;65.30;;;;;;4991612;28;20078;-80
2022/03/04 10:51:37;;;;;;;25.85;14.63;;;5.20;65.20;;;;;;4991437;28;20407;-77
2022/03/04 10:54:12;;;;;;;23.95;13.25;;;5.30;65.00;;;;;;4991132;28;20145;-77
2022/03/04 10:56:54;;;;;;;24.75;13.40;;;5.40;64.10;;;;;;4991004;28;20050;-79
2022/03/04 10:59:22;;;;;;;21.77;12.38;;;5.50;62.80;;;;;;4990790;28;20126;-78
2022/03/04 11:01:50;;;;;;;21.83;13.13;;;5.60;61.20;;;;;;4991769;28;20052;-79
2022/03/04 11:04:19;;;;;;;21.20;12.07;;;5.80;60.90;;;;;;4993227;28;20502;-79
2022/03/04 11:06:49;;;;;;;22.25;12.73;;;5.90;60.80;;;;;;4993342;28;20058;-81
2022/03/04 11:09:23;;;;;;;24.40;14.18;;;6.00;60.30;;;;;;4992640;28;20057;-79
2022/03/04 11:11:53;;;;;;;24.23;13.35;;;6.10;59.40;;;;;;4983536;28;20062;-75
2022/03/04 11:14:22;;;;;;;23.80;13.43;;;6.10;59.20;;;;;;4984264;28;20142;-76
2022/03/04 11:16:50;;;;;;;27.10;13.90;;;6.20;58.90;;;;;;4989395;28;20046;-77
2022/03/04 11:19:19;;;;;;;22.00;13.23;;;6.20;57.90;;;;;;4992460;28;20057;-79
2022/03/04 11:21:47;;;;;;;24.60;14.40;;;6.30;58.60;;;;;;4988669;28;20057;-77
2022/03/04 11:24:15;;;;;;;24.08;13.68;;;6.30;58.30;;;;;;4996463;28;20061;-78
2022/03/04 11:26:44;;;;;;;22.00;12.70;;;6.40;58.40;;;;;;4996496;28;20503;-74
2022/03/04 11:29:33;;;;;;;23.52;13.95;;;6.50;57.60;;;;;;4996582;28;20495;-75
2022/03/04 11:32:00;;;;;;;21.20;12.88;;;6.60;57.00;;;;;;4996469;28;20046;-75
2022/03/04 11:34:34;;;;;;;24.92;13.15;;;6.60;55.90;;;;;;4996068;28;20133;-78
2022/03/04 11:37:04;;;;;;;19.17;10.80;;;6.70;55.10;;;;;;4996696;28;20465;-78
2022/03/04 11:39:31;;;;;;;19.17;10.40;;;6.70;52.90;;;;;;4996455;28;20050;-76
2022/03/04 11:42:09;;;;;;;19.02;10.18;;;6.80;52.30;;;;;;4996614;28;20050;-75
2022/03/04 11:44:57;;;;;;;18.83;9.80;;;7.00;51.20;;;;;;4996528;28;20109;-78
2022/03/04 11:47:27;;;;;;;17.33;9.75;;;7.10;50.10;;;;;;4996520;28;20403;-77
2022/03/04 11:49:55;;;;;;;16.52;9.77;;;7.20;49.10;;;;;;4996124;28;20104;-75
2022/03/04 11:52:44;;;;;;;18.38;10.13;;;7.30;49.40;;;;;;4996036;28;20083;-76
2022/03/04 11:55:26;;;;;;;18.95;9.73;;;7.40;48.70;;;;;;4995704;28;20042;-77
2022/03/04 11:58:04;;;;;;;16.10;9.45;;;7.50;47.90;;;;;;4996027;28;20101;-78
2022/03/04 12:00:40;;;;;;;17.38;9.75;;;7.60;46.80;;;;;;4996265;28;20042;-76
2022/03/04 12:03:19;;;;;;;17.73;9.60;;;7.70;45.50;;;;;;4996060;28;20081;-75
2022/03/04 12:05:52;;;;;;;15.95;9.30;;;7.80;45.60;;;;;;4996859;28;20047;-75
2022/03/04 12:08:20;;;;;;;16.38;9.15;;;7.90;45.30;;;;;;4996849;28;20070;-77
2022/03/04 12:10:53;;;;;;;16.42;9.23;;;8.00;44.50;;;;;;4996175;28;20407;-77
2022/03/04 12:13:26;;;;;;;16.50;9.68;;;8.10;44.50;;;;;;4995852;28;20089;-79
2022/03/04 12:15:59;;;;;;;16.85;9.10;;;8.20;44.70;;;;;;4995651;28;20057;-76
2022/03/04 12:18:36;;;;;;;17.88;9.63;;;8.30;44.20;;;;;;5006672;28;20129;-78
2022/03/04 12:21:14;;;;;;;17.85;10.20;;;8.40;44.60;;;;;;5015945;28;20113;-76
2022/03/04 12:24:04;;;;;;;17.27;10.05;;;8.50;44.90;;;;;;4997358;28;20050;-78
2022/03/04 12:26:37;;;;;;;14.02;8.50;;;8.70;44.20;;;;;;4990203;28;20057;-76
2022/03/04 12:29:07;;;;;;;14.45;8.90;;;8.90;44.00;;;;;;4995893;28;20042;-75
2022/03/04 12:31:40;;;;;;;16.83;9.68;;;9.00;44.00;;;;;;4994351;28;20039;-77
2022/03/04 12:34:17;;;;;;;18.33;10.73;;;9.10;42.90;;;;;;4996060;28;20050;-79
2022/03/04 12:36:45;;;;;;;16.88;9.98;;;9.30;42.30;;;;;;4995392;28;20074;-76
2022/03/04 12:39:18;;;;;;;15.93;9.48;;;9.40;42.60;;;;;;4995011;28;20058;-77
2022/03/04 12:41:45;;;;;;;15.88;9.65;;;9.50;42.30;;;;;;4995353;28;20047;-78
2022/03/04 12:44:12;;;;;;;17.65;10.77;;;9.70;42.80;;;;;;4995315;28;20046;-76
2022/03/04 12:46:41;;;;;;;20.08;11.25;;;9.90;42.10;;;;;;4994989;28;20054;-77
2022/03/04 12:49:09;;;;;;;16.63;10.43;;;9.90;41.60;;;;;;4994871;28;20050;-76
2022/03/04 12:51:39;;;;;;;19.63;12.23;;;10.10;41.90;;;;;;4994471;28;20097;-77
2022/03/04 12:54:09;;;;;;;18.67;11.38;;;10.20;40.90;;;;;;4973214;28;20066;-75
2022/03/04 12:56:37;;;;;;;18.80;11.45;;;10.40;40.50;;;;;;4973695;28;20051;-78
2022/03/04 12:59:05;;;;;;;17.75;11.10;;;10.60;40.70;;;;;;4980817;28;20496;-77
2022/03/04 13:01:33;;;;;;;17.60;10.45;;;10.80;40.90;;;;;;4994699;28;20057;-82
2022/03/04 13:04:01;;;;;;;19.77;12.05;;;10.90;41.00;;;;;;4994413;28;20053;-79
2022/03/04 13:06:31;;;;;;;19.65;10.73;;;11.00;40.30;;;;;;4992734;28;20050;-79
2022/03/04 13:09:01;;;;;;;18.98;11.40;;;11.20;40.40;;;;;;4988180;28;20094;-76
2022/03/04 13:11:32;;;;;;;16.35;10.65;;;11.30;39.80;;;;;;4992459;28;20054;-78
2022/03/04 13:14:03;;;;;;;16.92;10.88;;;11.50;39.70;;;;;;5004930;28;20049;-82
2022/03/04 13:16:33;;;;;;;16.85;11.07;;;11.60;39.80;;;;;;5011884;28;20586;-75
2022/03/04 13:19:02;;;;;;;21.13;13.13;;;11.80;39.40;;;;;;4993783;28;20411;-82
2022/03/04 13:21:44;;;;;;;20.30;12.68;;;12.00;38.80;;;;;;4991972;28;20054;-78
2022/03/04 13:24:21;;;;;;;20.77;12.98;;;12.10;38.30;;;;;;4990728;28;20066;-77
2022/03/04 13:26:52;;;;;;;19.05;11.43;;;12.40;38.00;;;;;;4993220;28;20043;-78
2022/03/04 13:29:22;;;;;;;16.45;10.38;;;12.50;38.50;;;;;;4990379;28;20062;-78
2022/03/04 13:31:50;;;;;;;15.50;10.00;;;12.60;38.80;;;;;;4991797;28;20050;-80
2022/03/04 13:34:27;;;;;;;16.00;9.65;;;12.80;38.20;;;;;;4990521;28;20064;-81
2022/03/04 13:36:56;;;;;;;16.48;10.05;;;12.90;38.10;;;;;;4991633;28;20060;-79
2022/03/04 13:39:30;;;;;;;16.77;10.02;;;12.90;37.50;;;;;;4991060;28;20073;-79
2022/03/04 13:42:22;;;;;;;19.03;11.03;;;13.10;37.10;;;;;;4987353;28;20050;-81
2022/03/04 13:45:03;;;;;;;16.45;10.55;;;13.30;37.20;;;;;;4979588;28;20053;-81
2022/03/04 13:47:36;;;;;;;18.73;10.18;;;13.50;35.50;;;;;;4986131;28;20125;-80
2022/03/04 13:50:08;;;;;;;14.75;9.20;;;13.70;36.00;;;;;;4986918;28;20463;-80
2022/03/04 13:52:59;;;;;;;16.75;9.90;;;13.90;35.60;;;;;;4985988;28;20134;-78
2022/03/04 13:55:39;;;;;;;18.67;10.27;;;14.20;35.70;;;;;;4981252;28;20139;-79
2022/03/04 13:58:13;;;;;;;15.43;10.48;;;14.60;35.10;;;;;;4979008;28;20058;-79
2022/03/04 14:00:43;;;;;;;16.63;10.55;;;14.80;34.60;;;;;;4989057;28;20046;-76
2022/03/04 14:03:13;;;;;;;16.45;10.43;;;15.00;34.70;;;;;;4983084;28;20416;-78
2022/03/04 14:05:42;;;;;;;15.60;10.95;;;15.40;34.60;;;;;;4988735;28;20055;-76
2022/03/04 14:08:11;;;;;;;15.57;10.50;;;;;;;;;;4985753;28;20057;-79
2022/03/04 14:10:40;;;;;;;15.85;10.18;;;17.00;31.90;;;;;;4994802;28;20770;-77
2022/03/04 14:13:10;;;;;;;15.57;10.05;;;17.90;32.80;;;;;;4990530;28;20057;-81
2022/03/04 14:15:41;;;;;;;14.15;9.98;;;19.40;30.40;;;;;;4991084;28;20423;-79
2022/03/04 14:18:10;;;;;;;13.02;9.73;;;21.40;29.80;;;;;;4990864;28;20038;-79
2022/03/04 14:20:39;;;;;;;14.07;9.88;;;23.60;28.70;;;;;;4991543;28;20053;-80
2022/03/04 14:23:07;;;;;;;13.93;9.90;;;25.80;27.50;;;;;;5001850;28;20082;-77
2022/03/04 14:25:35;;;;;;;13.13;10.13;;;27.70;26.60;;;;;;5001866;28;20113;-78
2022/03/04 14:28:03;;;;;;;12.98;10.00;;;;;;;;;;5001248;28;20137;-75
2022/03/04 14:30:32;;;;;;;13.20;9.98;;;31.00;24.20;;;;;;4991717;28;20050;-76
2022/03/04 14:33:02;;;;;;;12.68;9.75;;;31.20;24.50;;;;;;4990253;28;20049;-78
2022/03/04 14:35:31;;;;;;;12.73;9.02;;;32.10;24.20;;;;;;4990642;28;20054;-80
2022/03/04 14:37:58;;;;;;;11.30;8.27;;;32.60;23.80;;;;;;4990401;28;20046;-78
2022/03/04 14:40:26;;;;;;;11.50;8.98;;;32.70;23.50;;;;;;4990091;28;20050;-79
2022/03/04 14:42:55;;;;;;;11.32;8.65;;;32.90;23.20;;;;;;4990734;28;20057;-78
2022/03/04 14:45:24;;;;;;;11.35;8.55;;;33.10;23.30;;;;;;4989060;28;20060;-78
2022/03/04 14:47:56;;;;;;;11.82;8.90;;;33.10;22.90;;;;;;4981131;28;20065;-78
2022/03/04 14:50:27;;;;;;;12.05;8.65;;;33.30;23.00;;;;;;4991301;28;20133;-78
2022/03/04 14:52:54;;;;;;;10.93;8.27;;;33.40;22.70;;;;;;4994195;28;20233;-78
2022/03/04 14:55:24;;;;;;;11.77;8.63;;;33.70;22.70;;;;;;4993655;28;20053;-77
2022/03/04 14:57:52;;;;;;;12.63;9.20;;;33.90;22.50;;;;;;4996863;28;20169;-77
2022/03/04 15:00:22;;;;;;;13.38;9.73;;;33.80;22.80;;;;;;4996397;28;20035;-77
2022/03/04 15:02:50;;;;;;;14.07;10.18;;;33.70;22.60;;;;;;4999732;28;20154;-78
2022/03/04 15:05:22;;;;;;;11.10;9.00;;;33.50;22.50;;;;;;5016050;28;20129;-76
2022/03/04 15:07:54;;;;;;;11.88;9.38;;;33.60;22.50;;;;;;4999598;28;20050;-77
2022/03/04 15:10:22;;;;;;;12.73;9.55;;;33.60;22.50;;;;;;4993352;28;20042;-80
2022/03/04 15:12:51;;;;;;;12.85;9.75;;;33.70;22.60;;;;;;4993690;28;20046;-80
2022/03/04 15:15:18;;;;;;;12.35;10.15;;;33.70;22.60;;;;;;4993624;28;20076;-81
2022/03/04 15:17:45;;;;;;;12.20;9.55;;;33.90;22.60;;;;;;4993461;28;20056;-80
2022/03/04 15:20:13;;;;;;;13.90;9.43;;;34.10;23.10;;;;;;4993802;28;20050;-77
2022/03/04 15:22:41;;;;;;;14.00;10.48;;;34.10;22.40;;;;;;4993705;28;20504;-81
2022/03/04 15:25:11;;;;;;;13.32;10.23;;;33.90;22.40;;;;;;4993397;28;20133;-80
2022/03/04 15:27:38;;;;;;;12.57;9.95;;;33.60;22.40;;;;;;4991538;28;20050;-78
2022/03/04 15:30:08;;;;;;;12.80;9.95;;;33.50;22.40;;;;;;4993246;28;20137;-79
2022/03/04 15:32:36;;;;;;;12.65;9.82;;;33.40;22.60;;;;;;4992141;28;20053;-79
2022/03/04 15:35:03;;;;;;;13.35;10.25;;;33.50;22.60;;;;;;4985251;28;20050;-80
2022/03/04 15:37:31;;;;;;;13.00;9.48;;;33.50;22.50;;;;;;4993374;28;20042;-77
2022/03/04 15:39:59;;;;;;;15.00;10.98;;;33.20;22.40;;;;;;4993490;28;20061;-79
2022/03/04 15:42:27;;;;;;;14.50;10.00;;;32.90;22.30;;;;;;4992810;28;20393;-79
2022/03/04 15:44:56;;;;;;;12.43;9.70;;;32.70;22.50;;;;;;4993025;28;20140;-77
2022/03/04 15:47:23;;;;;;;12.55;10.52;;;32.70;22.60;;;;;;4993561;28;20046;-76
2022/03/04 15:49:50;;;;;;;12.50;10.10;;;32.40;22.50;;;;;;4992598;28;20054;-75
2022/03/04 15:52:17;;;;;;;12.77;10.30;;;32.30;22.80;;;;;;4993243;28;20052;-76
2022/03/04 15:54:45;;;;;;;13.38;10.55;;;32.20;22.70;;;;;;4983962;28;20050;-78
2022/03/04 15:57:14;;;;;;;12.95;10.18;;;31.90;22.60;;;;;;4988500;28;20113;-80
2022/03/04 15:59:43;;;;;;;11.00;9.02;;;31.70;22.60;;;;;;4993253;28;20077;-77
2022/03/04 16:02:11;;;;;;;12.73;9.48;;;31.50;22.60;;;;;;4995709;28;20141;-78
2022/03/04 16:04:39;;;;;;;11.50;8.82;;;31.20;22.40;;;;;;4994624;28;20046;-76
2022/03/04 16:07:06;;;;;;;12.93;9.23;;;30.70;22.40;;;;;;4995851;28;20108;-76
2022/03/04 16:09:35;;;;;;;12.77;10.07;;;30.20;22.50;;;;;;5009665;28;20096;-74
2022/03/04 16:12:02;;;;;;;13.60;9.88;;;29.70;22.60;;;;;;4983750;28;20570;-79
2022/03/04 16:14:29;;;;;;;14.45;9.70;;;29.10;22.60;;;;;;4991356;28;20495;-74
2022/03/04 16:16:58;;;;;;;12.40;9.55;;;28.70;22.80;;;;;;4997232;28;20054;-78
2022/03/04 16:19:25;;;;;;;13.13;9.30;;;28.30;23.10;;;;;;5019804;28;20110;-75
2022/03/04 16:21:52;;;;;;;12.50;8.68;;;28.00;23.10;;;;;;5007787;28;20030;-75
2022/03/04 16:24:19;;;;;;;12.65;8.70;;;27.60;23.10;;;;;;5012576;28;20053;-73
2022/03/04 16:26:46;;;;;;;13.05;9.18;;;27.30;23.10;;;;;;4998379;28;20057;-79
2022/03/04 16:29:13;;;;;;;13.07;9.48;;;26.80;23.10;;;;;;5007311;28;20058;-80
2022/03/04 16:31:40;;;;;;;13.25;9.73;;;26.40;23.30;;;;;;4998354;28;20046;-78
2022/03/04 16:34:09;;;;;;;12.40;8.88;;;25.90;23.40;;;;;;5010390;28;20046;-80
2022/03/04 16:36:36;;;;;;;12.70;8.85;;;25.20;23.40;;;;;;4994701;28;20053;-77
2022/03/04 16:39:03;;;;;;;12.77;8.93;;;24.40;23.70;;;;;;5002446;28;20046;-77
2022/03/04 16:41:30;;;;;;;14.63;10.18;;;23.70;24.10;;;;;;5008116;28;20056;-77
2022/03/04 16:43:57;;;;;;;12.70;8.63;;;23.10;24.70;;;;;;4983385;28;20053;-77
2022/03/04 16:46:25;;;;;;;13.52;9.27;;;22.50;24.80;;;;;;4989837;28;20069;-75
2022/03/04 16:48:54;;;;;;;13.13;8.98;;;21.90;24.70;;;;;;4988012;28;20042;-79
2022/03/04 16:51:22;;;;;;;12.98;8.82;;;21.30;24.90;;;;;;4970061;28;20079;-74
2022/03/04 16:53:50;;;;;;;13.00;8.65;;;20.70;25.20;;;;;;4994373;28;20042;-74
2022/03/04 16:56:17;;;;;;;14.13;8.88;;;20.10;25.50;;;;;;4991962;28;20085;-75
2022/03/04 16:58:45;;;;;;;13.85;9.45;;;19.50;25.90;;;;;;5003098;28;20064;-74
2022/03/04 17:01:12;;;;;;;17.15;10.55;;;18.80;26.10;;;;;;4986608;28;20492;-75
2022/03/04 17:03:40;;;;;;;18.35;11.32;;;18.10;26.90;;;;;;4992822;28;20061;-74
2022/03/04 17:06:08;;;;;;;17.90;11.13;;;17.50;26.80;;;;;;4991861;28;20502;-76
2022/03/04 17:08:38;;;;;;;19.35;12.25;;;16.90;27.30;;;;;;4981353;28;20064;-77
2022/03/04 17:11:06;;;;;;;20.15;12.93;;;16.30;27.80;;;;;;4992454;28;20492;-74
2022/03/04 17:13:33;;;;;;;28.30;15.90;;;15.70;28.60;;;;;;4991503;28;20085;-74
2022/03/04 17:16:01;;;;;;;19.17;11.55;;;15.10;28.50;;;;;;4991329;28;20052;-76
2022/03/04 17:18:30;;;;;;;17.02;10.40;;;14.50;28.90;;;;;;4987054;28;20049;-77
2022/03/04 17:20:58;;;;;;;14.25;8.80;;;14.00;29.30;;;;;;4989274;28;20050;-76
2022/03/04 17:23:26;;;;;;;15.63;9.38;;;13.60;29.70;;;;;;4979891;28;20129;-79
2022/03/04 17:25:54;;;;;;;15.10;9.25;;;13.10;30.10;;;;;;4990397;28;20050;-79
2022/03/04 17:28:21;;;;;;;12.98;8.27;;;12.80;30.60;;;;;;4982331;28;20046;-77
2022/03/04 17:30:48;;;;;;;13.00;7.95;;;12.40;30.90;;;;;;4990063;28;20050;-75
2022/03/04 17:33:17;;;;;;;13.30;7.70;;;12.10;31.40;;;;;;4988951;28;20476;-75
2022/03/04 17:35:44;;;;;;;13.27;7.22;;;11.80;31.90;;;;;;4992085;28;20054;-75
2022/03/04 17:38:12;;;;;;;13.40;7.97;;;11.50;32.30;;;;;;4992320;28;20054;-79
2022/03/04 17:40:39;;;;;;;13.60;7.75;;;11.30;32.80;;;;;;4992229;28;20046;-77